Terminal Aerodrome Forecast
Issued by NWS Louisville, KY

Home | Current Version | Previous Version | Text Only | Print | Product List | Glossary On
Versions: 1 2 3 4 5 6 7 8 9 10 11 12 13 14 15 16 17 18 19 20 21 22
000
FTUS43 KLMK 241500 AAA
TAFSDF
TAF AMD
KSDF 241511Z 2415/2518 19013G19KT P6SM SCT250
     FM242300 14010KT P6SM BKN200
     FM250900 17012KT P6SM BKN200=

USA.gov is the U.S. government's official web portal to all federal, state and local government web resources and services.